Wake Forest, NC (27587)

8:28 AM EDT on August 04, 2015 (GMT -0400)
Flaherty Farms | | Change Station
CLOSE
Current Station
Personal Weather Station
Location: Wake Forest, NC
Elevation: 410 ft
Nearby Weather Stations

Elev 410 ft 35.99 °N, 78.49 °W | Updated 4 minutes ago

Partly Cloudy
Partly Cloudy
79.2 °F
Feels Like 83 °F
N
3.0
Wind Variable Wind from East
Gusts 6.0 mph

Today
High -- | Low -- °F
--% Chance of Precip.
Yesterday
High -- | Low -- °F
Precip. -- in
6:23 AM 8:16 PM
Waning Gibbous, 78% visible
Pressure 30.03 in
Visibility 7.0 miles
Clouds Overcast 600 ft
Heat Index 83 °F
Dew Point 74 °F
Humidity 85%
Rainfall 0.00 in
Snow Depth Not available.
UV 1 out of 12
Pollen 4.60 out of 12
Air Quality Not available.
Flu Activity Not available.
METAR KLHZ 041215Z AUTO 19004KT 7SM OVC006 24/23 A3003 RMK AO2

More Conditions Fewer Conditions

Pressure 30.03 in
Visibility 7.0 miles
Clouds Overcast 600 ft
Heat Index 83 °F
Dew Point 74 °F
Humidity 85%
Rainfall 0.00 in
Snow Depth Not available.
UV 1 out of 12
Pollen 4.60 out of 12
Air Quality Not available.
Flu Activity Not available.
METAR KLHZ 041215Z AUTO 19004KT 7SM OVC006 24/23 A3003 RMK AO2

More Conditions Fewer Conditions

10-Day Weather Forecast

×

Almanac

Astronomy

Aug. 04, 2015 Rise Set
Actual Time
Civil Twilight
Nautical Twilight
Astronomical Twilight
Moon
Length of Visible Light
Length of Day
Tomorrow will be .
, % of the Moon is Illuminated

Today's Extremes

State Highs State Lows

Community

WunderPhotos

Upload Photos

1,843,910 photos uploaded!

WunderBlogs® & News

Nearby

Air Quality

  Air Quality AQ Index Pollutant
Not available.

Snow Depth

Station Depth Elevation

Earthquake Activity

City Distance Mag. Time & Date
Minimum magnitude displayed is 2.5.

Coastal Water Temperatures

Place Temperature

Stations

Nearby Weather Stations

Station Location Temp. Windchill Dew Point Humidity Wind Precip. Elev Updated Type